Time;durP1;ratioP1;P1;durP2;ratioP2;P2;SDS_P1;SDS_P2;PMS_P1;PMS_P2;Temp;Humidity;BMP_temperature;BMP_pressure;BME280_temperature;BME280_humidity;BME280_pressure;Samples;Min_cycle;Max_cycle;Signal;HPM_P1;HPM_P2
2021/04/22 00:00:17;;;;;;;11.65;1.90;;;6.20;62.00;;;;;;5075078;28;20107;-74
2021/04/22 00:02:44;;;;;;;7.28;2.13;;;6.20;62.10;;;;;;5074813;28;20107;-74
2021/04/22 00:05:16;;;;;;;14.70;2.45;;;6.10;62.20;;;;;;5076111;28;20024;-74
2021/04/22 00:07:42;;;;;;;9.63;2.13;;;6.10;62.20;;;;;;5074752;28;20175;-74
2021/04/22 00:10:16;;;;;;;8.23;2.25;;;6.10;62.30;;;;;;5074765;28;20098;-74
2021/04/22 00:12:42;;;;;;;6.85;2.17;;;6.10;62.40;;;;;;5074713;28;20107;-74
2021/04/22 00:15:15;;;;;;;9.52;2.50;;;6.10;62.40;;;;;;5074715;28;20121;-74
2021/04/22 00:17:43;;;;;;;8.68;2.00;;;6.00;62.50;;;;;;5075977;28;20356;-74
2021/04/22 00:20:10;;;;;;;6.53;2.03;;;6.00;62.50;;;;;;5074602;28;20099;-74
2021/04/22 00:22:35;;;;;;;8.25;2.20;;;6.00;62.60;;;;;;5075823;28;20070;-74
2021/04/22 00:25:02;;;;;;;11.52;2.38;;;6.00;62.60;;;;;;5075969;28;20476;-74
2021/04/22 00:27:28;;;;;;;7.75;2.15;;;5.90;62.60;;;;;;5074116;28;20028;-74
2021/04/22 00:29:53;;;;;;;9.45;2.20;;;5.90;62.70;;;;;;5075699;28;20391;-74
2021/04/22 00:32:19;;;;;;;9.75;2.10;;;5.90;62.70;;;;;;5075597;28;20048;-74
2021/04/22 00:34:45;;;;;;;9.40;2.40;;;5.90;62.70;;;;;;5075491;28;20027;-74
2021/04/22 00:37:10;;;;;;;6.68;2.00;;;5.90;62.80;;;;;;5075663;28;20024;-75
2021/04/22 00:39:37;;;;;;;12.18;2.53;;;5.90;62.90;;;;;;5075703;28;20025;-75
2021/04/22 00:42:04;;;;;;;9.48;2.15;;;5.90;62.90;;;;;;5075613;28;20056;-75
2021/04/22 00:44:31;;;;;;;7.70;1.65;;;5.90;63.00;;;;;;5075671;28;20029;-74
2021/04/22 00:46:57;;;;;;;12.00;2.20;;;5.90;63.00;;;;;;5075687;28;20021;-75
2021/04/22 00:49:27;;;;;;;8.70;2.10;;;5.90;63.10;;;;;;5074245;28;20033;-75
2021/04/22 00:51:53;;;;;;;9.95;2.70;;;5.80;63.00;;;;;;5075269;28;20098;-75
2021/04/22 00:54:20;;;;;;;8.88;2.10;;;5.80;63.10;;;;;;5074162;28;20036;-75
2021/04/22 00:56:46;;;;;;;7.20;1.80;;;5.80;63.30;;;;;;5074203;28;20012;-74
2021/04/22 00:59:11;;;;;;;9.98;2.08;;;5.80;63.30;;;;;;5075466;28;20472;-75
2021/04/22 01:01:37;;;;;;;10.63;2.30;;;5.80;63.30;;;;;;5074158;28;20115;-74
2021/04/22 01:04:04;;;;;;;8.85;2.10;;;5.80;63.40;;;;;;5075450;28;20365;-75
2021/04/22 01:06:30;;;;;;;6.68;2.28;;;5.80;63.40;;;;;;5075429;28;20024;-75
2021/04/22 01:08:56;;;;;;;7.60;2.00;;;5.80;63.40;;;;;;5073779;28;20025;-75
2021/04/22 01:11:28;;;;;;;7.10;2.03;;;5.80;63.40;;;;;;5075018;28;20024;-74
2021/04/22 01:13:54;;;;;;;12.10;2.30;;;5.70;63.40;;;;;;5074877;28;20127;-75
2021/04/22 01:16:20;;;;;;;8.00;2.53;;;5.80;63.60;;;;;;5075042;28;20507;-75
2021/04/22 01:18:46;;;;;;;9.23;2.17;;;5.70;63.70;;;;;;5073912;28;20055;-74
2021/04/22 01:21:36;;;;;;;9.85;2.05;;;5.70;63.80;;;;;;5075191;28;20028;-75
2021/04/22 01:24:02;;;;;;;9.73;2.13;;;5.60;63.90;;;;;;5073649;28;20020;-74
2021/04/22 01:26:28;;;;;;;9.52;2.38;;;5.60;63.90;;;;;;5073676;28;20409;-75
2021/04/22 01:28:53;;;;;;;8.52;2.45;;;5.50;64.10;;;;;;5074574;28;20103;-74
2021/04/22 01:31:20;;;;;;;10.07;2.22;;;5.50;64.20;;;;;;5074533;28;20098;-75
2021/04/22 01:33:46;;;;;;;9.45;2.20;;;5.40;64.30;;;;;;5074489;28;20028;-74
2021/04/22 01:36:12;;;;;;;9.50;2.10;;;5.40;64.40;;;;;;5073227;28;20017;-75
2021/04/22 01:38:38;;;;;;;10.52;2.42;;;5.40;64.40;;;;;;5073844;28;20403;-74
2021/04/22 01:41:04;;;;;;;10.43;2.20;;;5.40;64.50;;;;;;5074460;28;20016;-74
2021/04/22 01:43:31;;;;;;;8.02;1.98;;;5.40;64.60;;;;;;5074368;28;20024;-75
2021/04/22 01:45:58;;;;;;;8.85;2.13;;;5.40;64.60;;;;;;5074243;28;20519;-75
2021/04/22 01:48:25;;;;;;;6.20;2.05;;;5.30;64.60;;;;;;5072950;28;20029;-74
2021/04/22 01:50:51;;;;;;;8.40;2.10;;;5.30;64.70;;;;;;5073937;28;20396;-74
2021/04/22 01:53:17;;;;;;;5.13;2.05;;;5.30;64.70;;;;;;5072788;28;20082;-74
2021/04/22 01:55:45;;;;;;;8.13;2.00;;;5.30;64.80;;;;;;5074062;28;20024;-75
2021/04/22 01:58:14;;;;;;;8.80;2.20;;;5.30;64.80;;;;;;5074174;28;20446;-75
2021/04/22 02:00:45;;;;;;;8.02;2.03;;;5.30;64.80;;;;;;5072525;28;20013;-74
2021/04/22 02:03:12;;;;;;;7.40;2.22;;;5.30;64.90;;;;;;5073897;28;20029;-75
2021/04/22 02:05:39;;;;;;;8.50;2.35;;;5.30;65.00;;;;;;5072440;28;20021;-75
2021/04/22 02:08:06;;;;;;;7.50;2.40;;;5.30;65.80;;;;;;5073969;28;20032;-74
2021/04/22 02:10:32;;;;;;;9.30;2.50;;;5.20;65.20;;;;;;5074231;28;20372;-75
2021/04/22 02:12:58;;;;;;;12.52;3.58;;;5.20;65.20;;;;;;5072352;28;20472;-75
2021/04/22 02:15:27;;;;;;;8.05;2.47;;;5.20;65.30;;;;;;5072223;28;20024;-74
2021/04/22 02:17:53;;;;;;;8.15;2.15;;;5.20;65.40;;;;;;5073511;28;20020;-75
2021/04/22 02:20:19;;;;;;;6.93;2.08;;;5.20;65.40;;;;;;5073813;28;20021;-74
2021/04/22 02:22:46;;;;;;;5.80;1.85;;;5.20;65.50;;;;;;5073769;28;20024;-75
2021/04/22 02:25:14;;;;;;;11.38;2.75;;;5.20;65.60;;;;;;5072459;28;20028;-74
2021/04/22 02:27:40;;;;;;;10.20;2.60;;;5.10;65.60;;;;;;5072224;28;20039;-74
2021/04/22 02:30:31;;;;;;;8.50;2.33;;;5.10;65.70;;;;;;5072111;28;20024;-74
2021/04/22 02:32:58;;;;;;;9.73;2.65;;;5.10;65.80;;;;;;5073091;28;20064;-74
2021/04/22 02:35:27;;;;;;;7.95;2.30;;;5.10;65.80;;;;;;5073267;28;20028;-74
2021/04/22 02:37:53;;;;;;;8.30;2.45;;;5.20;65.90;;;;;;5073243;28;20024;-75
2021/04/22 02:40:23;;;;;;;12.77;2.58;;;5.20;66.10;;;;;;5073161;28;20019;-75
2021/04/22 02:42:48;;;;;;;8.98;2.40;;;5.20;66.10;;;;;;5073267;28;20100;-74
2021/04/22 02:45:24;;;;;;;11.18;2.60;;;5.20;66.20;;;;;;5072155;28;20048;-75
2021/04/22 02:47:49;;;;;;;16.08;2.88;;;5.10;66.20;;;;;;5072025;28;20329;-75
2021/04/22 02:50:18;;;;;;;10.52;2.88;;;5.10;66.30;;;;;;5071829;28;20035;-75
2021/04/22 02:52:44;;;;;;;11.18;2.50;;;5.10;66.40;;;;;;5073153;28;20071;-75
2021/04/22 02:55:11;;;;;;;8.80;2.10;;;5.00;66.50;;;;;;5071793;28;20049;-75
2021/04/22 02:57:36;;;;;;;10.45;2.70;;;5.00;66.60;;;;;;5073156;28;20488;-74
2021/04/22 03:00:07;;;;;;;7.40;2.40;;;4.90;66.60;;;;;;5073632;28;20028;-74
2021/04/22 03:02:33;;;;;;;12.50;2.83;;;4.90;66.70;;;;;;5073095;28;20054;-75
2021/04/22 03:04:59;;;;;;;10.85;2.10;;;4.90;66.70;;;;;;5073290;28;20107;-75
2021/04/22 03:07:24;;;;;;;8.70;2.53;;;4.80;66.80;;;;;;5071807;28;20039;-75
2021/04/22 03:09:50;;;;;;;9.43;2.50;;;4.80;66.80;;;;;;5071865;28;20025;-75
2021/04/22 03:12:15;;;;;;;13.10;2.70;;;4.80;66.90;;;;;;5073229;28;20486;-75
2021/04/22 03:14:41;;;;;;;7.00;2.17;;;4.80;66.90;;;;;;5071708;28;20020;-74
2021/04/22 03:17:07;;;;;;;10.07;2.72;;;4.80;67.10;;;;;;5072990;28;20025;-75
2021/04/22 03:19:32;;;;;;;8.05;2.47;;;4.80;67.20;;;;;;5073110;28;20100;-75
2021/04/22 03:21:59;;;;;;;11.38;2.22;;;4.80;67.20;;;;;;5072877;28;20368;-74
2021/04/22 03:24:25;;;;;;;6.88;2.30;;;4.80;67.20;;;;;;5072856;28;20075;-74
2021/04/22 03:26:51;;;;;;;7.32;2.55;;;4.80;67.30;;;;;;5072905;28;20051;-74
2021/04/22 03:29:17;;;;;;;11.07;2.53;;;4.80;67.30;;;;;;5071509;28;20067;-74
2021/04/22 03:31:42;;;;;;;7.10;2.00;;;4.80;67.30;;;;;;5071476;28;20523;-74
2021/04/22 03:34:08;;;;;;;7.43;2.35;;;4.80;67.40;;;;;;5072564;28;20387;-74
2021/04/22 03:36:33;;;;;;;12.57;2.80;;;4.90;67.40;;;;;;5071326;28;20023;-74
2021/04/22 03:38:59;;;;;;;13.32;2.50;;;4.80;67.50;;;;;;5072909;28;20025;-74
2021/04/22 03:41:25;;;;;;;8.20;2.28;;;4.80;67.50;;;;;;5072671;28;20021;-75
2021/04/22 03:43:50;;;;;;;11.95;2.13;;;4.80;67.50;;;;;;5071322;28;20016;-74
2021/04/22 03:46:16;;;;;;;7.38;2.33;;;4.80;67.50;;;;;;5072581;28;20032;-75
2021/04/22 03:48:42;;;;;;;11.95;2.50;;;4.80;67.60;;;;;;5073010;28;20039;-75
2021/04/22 03:51:07;;;;;;;6.88;2.75;;;4.80;67.70;;;;;;5072720;28;20041;-74
2021/04/22 03:53:33;;;;;;;9.55;2.58;;;4.80;67.70;;;;;;5072582;28;20025;-75
2021/04/22 03:55:59;;;;;;;7.38;2.25;;;4.80;67.80;;;;;;5072446;28;20447;-74
2021/04/22 03:58:24;;;;;;;9.32;2.17;;;4.80;67.80;;;;;;5071694;28;20112;-74
2021/04/22 04:00:50;;;;;;;6.78;2.20;;;4.80;67.80;;;;;;5071166;28;20527;-74
2021/04/22 04:03:16;;;;;;;9.73;2.55;;;4.80;67.80;;;;;;5075192;28;20388;-74
2021/04/22 04:05:41;;;;;;;10.38;2.78;;;4.80;67.80;;;;;;5076172;28;20495;-74
2021/04/22 04:08:07;;;;;;;8.10;2.13;;;4.80;67.80;;;;;;5074699;28;20038;-75
2021/04/22 04:10:33;;;;;;;6.50;1.95;;;4.80;67.70;;;;;;5076117;28;20384;-74
2021/04/22 04:12:58;;;;;;;8.63;2.15;;;4.90;67.80;;;;;;5075875;28;20100;-74
2021/04/22 04:15:24;;;;;;;5.10;1.85;;;4.90;67.70;;;;;;5074444;28;20085;-74
2021/04/22 04:17:50;;;;;;;8.63;2.53;;;4.90;67.70;;;;;;5076014;28;20090;-74
2021/04/22 04:20:16;;;;;;;7.72;2.10;;;4.90;67.50;;;;;;5074299;28;20025;-74
2021/04/22 04:22:48;;;;;;;7.43;2.03;;;4.90;67.40;;;;;;5074321;28;20021;-74
2021/04/22 04:25:14;;;;;;;8.27;1.90;;;5.00;67.30;;;;;;5074307;28;20035;-74
2021/04/22 04:27:41;;;;;;;6.25;1.80;;;5.00;67.10;;;;;;5075915;28;20354;-75
2021/04/22 04:30:09;;;;;;;4.43;1.65;;;5.10;66.90;;;;;;5074130;28;20677;-74
2021/04/22 04:32:34;;;;;;;7.63;2.00;;;5.20;66.80;;;;;;5074138;28;20036;-74
2021/04/22 04:35:00;;;;;;;8.15;1.63;;;5.30;66.50;;;;;;5075902;28;20029;-75
2021/04/22 04:37:26;;;;;;;6.93;2.10;;;5.30;66.20;;;;;;5075800;28;20029;-75
2021/04/22 04:39:51;;;;;;;5.80;1.80;;;5.40;66.00;;;;;;5074002;28;20367;-75
2021/04/22 04:42:18;;;;;;;8.60;1.65;;;5.50;65.80;;;;;;5075418;28;20021;-74
2021/04/22 04:44:44;;;;;;;6.07;1.67;;;5.50;65.60;;;;;;5075483;28;20021;-74
2021/04/22 04:47:09;;;;;;;8.95;1.60;;;5.50;65.40;;;;;;5073929;28;20025;-75
2021/04/22 04:49:35;;;;;;;7.40;1.80;;;5.50;65.20;;;;;;5073912;28;20491;-75
2021/04/22 04:52:01;;;;;;;4.00;1.60;;;5.60;65.00;;;;;;5075066;28;20105;-74
2021/04/22 04:54:27;;;;;;;4.28;1.58;;;5.60;64.80;;;;;;5073780;28;20033;-74
2021/04/22 04:56:53;;;;;;;4.43;1.60;;;5.70;64.70;;;;;;5074917;28;20048;-74
2021/04/22 04:59:18;;;;;;;11.30;1.73;;;5.70;64.50;;;;;;5075152;28;20471;-74
2021/04/22 05:01:44;;;;;;;4.22;1.27;;;5.80;64.40;;;;;;5075345;28;20533;-74
2021/04/22 05:04:10;;;;;;;8.40;1.45;;;5.80;64.20;;;;;;5073752;28;20048;-74
2021/04/22 05:06:39;;;;;;;6.30;1.33;;;5.90;64.10;;;;;;5073621;28;20028;-74
2021/04/22 05:09:05;;;;;;;4.93;1.55;;;5.90;63.90;;;;;;5074673;28;20056;-74
2021/04/22 05:11:31;;;;;;;4.00;1.42;;;6.00;63.80;;;;;;5073727;28;20320;-74
2021/04/22 05:13:56;;;;;;;7.93;1.60;;;6.00;63.70;;;;;;5073519;28;20020;-75
2021/04/22 05:16:22;;;;;;;4.20;1.30;;;6.10;63.60;;;;;;5073756;28;20474;-74
2021/04/22 05:18:48;;;;;;;2.60;1.08;;;6.20;63.50;;;;;;5073235;28;20065;-75
2021/04/22 05:21:13;;;;;;;6.55;1.65;;;6.20;63.40;;;;;;5074880;28;20029;-75
2021/04/22 05:23:39;;;;;;;7.32;1.70;;;6.20;63.30;;;;;;5074574;28;20029;-74
2021/04/22 05:26:05;;;;;;;8.32;2.08;;;6.30;63.20;;;;;;5073488;28;20029;-74
2021/04/22 05:28:30;;;;;;;4.53;1.40;;;6.30;63.20;;;;;;5073325;28;20056;-75
2021/04/22 05:30:56;;;;;;;7.95;1.77;;;6.30;63.20;;;;;;5073314;28;20031;-74
2021/04/22 05:33:22;;;;;;;7.35;1.50;;;6.20;63.10;;;;;;5073244;28;20375;-74
2021/04/22 05:35:47;;;;;;;7.78;1.50;;;6.20;63.20;;;;;;5073011;28;20034;-75
2021/04/22 05:38:13;;;;;;;5.07;1.67;;;6.20;63.10;;;;;;5073248;28;20025;-75
2021/04/22 05:40:39;;;;;;;6.97;1.70;;;6.20;63.00;;;;;;5073015;28;20012;-75
2021/04/22 05:43:07;;;;;;;6.25;1.67;;;6.30;62.90;;;;;;5073260;28;20109;-75
2021/04/22 05:45:34;;;;;;;9.85;2.10;;;6.30;62.90;;;;;;5074098;28;20419;-75
2021/04/22 05:48:00;;;;;;;6.95;1.75;;;6.30;62.80;;;;;;5074453;28;20027;-75
2021/04/22 05:50:26;;;;;;;7.70;1.67;;;6.30;62.80;;;;;;5072464;28;20044;-75
2021/04/22 05:52:51;;;;;;;9.88;1.70;;;6.30;62.80;;;;;;5072795;28;20032;-75
2021/04/22 05:55:17;;;;;;;6.13;1.50;;;6.30;62.70;;;;;;5072696;28;20036;-76
2021/04/22 05:57:43;;;;;;;7.35;1.50;;;6.40;62.70;;;;;;5074386;28;20017;-76
2021/04/22 06:00:13;;;;;;;11.68;1.92;;;6.40;62.60;;;;;;5073911;28;20535;-75
2021/04/22 06:02:39;;;;;;;8.95;1.50;;;6.50;62.50;;;;;;5073827;28;20031;-75
2021/04/22 06:05:05;;;;;;;6.68;1.77;;;6.50;62.30;;;;;;5073883;28;20024;-76
2021/04/22 06:07:31;;;;;;;4.75;1.50;;;6.60;62.20;;;;;;5072480;28;20025;-75
2021/04/22 06:09:57;;;;;;;6.80;1.77;;;6.70;62.00;;;;;;5073620;28;20119;-74
2021/04/22 06:12:22;;;;;;;5.25;1.67;;;6.80;61.80;;;;;;5073457;28;20237;-74
2021/04/22 06:14:51;;;;;;;4.93;1.60;;;6.90;61.70;;;;;;5073434;28;20078;-75
2021/04/22 06:17:17;;;;;;;13.00;2.03;;;7.00;61.50;;;;;;5073569;28;20434;-75
2021/04/22 06:19:42;;;;;;;3.75;1.42;;;7.10;61.20;;;;;;5073454;28;20106;-74
2021/04/22 06:22:08;;;;;;;6.18;1.52;;;7.20;61.10;;;;;;5073424;28;20027;-75
2021/04/22 06:24:34;;;;;;;4.68;1.60;;;7.30;61.00;;;;;;5071899;28;20100;-74
2021/04/22 06:26:59;;;;;;;3.92;1.38;;;7.40;60.80;;;;;;5073334;28;20036;-74
2021/04/22 06:29:25;;;;;;;5.53;1.60;;;7.50;60.60;;;;;;5073394;28;20165;-74
2021/04/22 06:31:51;;;;;;;4.72;1.30;;;7.60;60.40;;;;;;5072140;28;20028;-74
2021/04/22 06:34:16;;;;;;;6.22;1.55;;;7.70;60.20;;;;;;5073446;28;20032;-74
2021/04/22 06:36:43;;;;;;;8.27;1.70;;;7.80;60.00;;;;;;5072182;28;20025;-74
2021/04/22 06:39:09;;;;;;;6.97;1.55;;;7.90;59.60;;;;;;5073303;28;20440;-75
2021/04/22 06:41:36;;;;;;;6.25;1.60;;;8.00;59.40;;;;;;5072300;28;20031;-74
2021/04/22 06:44:02;;;;;;;5.13;1.50;;;8.00;59.30;;;;;;5072355;28;20029;-74
2021/04/22 06:46:33;;;;;;;7.32;1.60;;;8.10;59.20;;;;;;5072077;28;20384;-74
2021/04/22 06:48:59;;;;;;;7.40;1.92;;;8.10;59.00;;;;;;5073217;28;20046;-74
2021/04/22 06:51:24;;;;;;;7.95;2.30;;;8.20;58.90;;;;;;5073181;28;20116;-74
2021/04/22 06:53:50;;;;;;;7.18;1.73;;;8.20;58.60;;;;;;5071803;28;20117;-74
2021/04/22 06:56:16;;;;;;;5.95;1.73;;;8.10;58.60;;;;;;5071719;28;20033;-75
2021/04/22 06:58:42;;;;;;;6.97;1.70;;;8.10;58.90;;;;;;5073243;28;20030;-73
2021/04/22 07:01:07;;;;;;;11.23;2.17;;;8.10;58.80;;;;;;5072047;28;20021;-74
2021/04/22 07:03:33;;;;;;;9.30;1.70;;;8.20;58.90;;;;;;5071714;28;20466;-71
2021/04/22 07:05:59;;;;;;;6.25;1.60;;;8.20;58.90;;;;;;5071521;28;20452;-71
2021/04/22 07:08:24;;;;;;;7.03;1.75;;;8.20;58.70;;;;;;5073169;28;20361;-70
2021/04/22 07:10:50;;;;;;;6.70;2.10;;;8.20;58.70;;;;;;5073434;28;20029;-71
2021/04/22 07:13:16;;;;;;;7.18;1.90;;;8.20;58.40;;;;;;5072976;28;20481;-70
2021/04/22 07:15:42;;;;;;;5.88;2.38;;;8.20;58.50;;;;;;5072358;28;20063;-71
2021/04/22 07:18:09;;;;;;;6.00;1.90;;;8.30;59.10;;;;;;5072933;28;20039;-71
2021/04/22 07:20:35;;;;;;;6.28;2.00;;;8.40;59.10;;;;;;5071479;28;20021;-71
2021/04/22 07:23:01;;;;;;;9.13;1.95;;;8.50;58.40;;;;;;5072898;28;20487;-71
2021/04/22 07:25:33;;;;;;;8.93;1.75;;;8.60;58.30;;;;;;5071412;28;20024;-71
2021/04/22 07:28:04;;;;;;;9.27;1.92;;;8.70;57.90;;;;;;5073214;28;20070;-71
2021/04/22 07:30:30;;;;;;;4.80;1.70;;;8.70;57.40;;;;;;5071501;28;20035;-71
2021/04/22 07:32:56;;;;;;;8.65;2.00;;;8.70;57.30;;;;;;5072793;28;20033;-71
2021/04/22 07:35:22;;;;;;;6.63;2.20;;;8.80;56.80;;;;;;5071382;28;20395;-71
2021/04/22 07:37:48;;;;;;;12.50;2.15;;;8.80;56.70;;;;;;5074734;28;20108;-71
2021/04/22 07:40:21;;;;;;;7.03;1.50;;;8.80;56.70;;;;;;5076713;28;20082;-71
2021/04/22 07:42:47;;;;;;;5.78;1.95;;;8.80;56.70;;;;;;5075246;28;20055;-72
2021/04/22 07:45:15;;;;;;;6.22;2.08;;;8.80;56.80;;;;;;5075289;28;20060;-71
2021/04/22 07:47:41;;;;;;;6.50;1.77;;;8.80;56.70;;;;;;5076406;28;20546;-71
2021/04/22 07:50:10;;;;;;;4.68;1.60;;;8.80;56.50;;;;;;5075033;28;20454;-71
2021/04/22 07:52:36;;;;;;;9.25;1.42;;;8.80;56.60;;;;;;5076208;28;20521;-71
2021/04/22 07:55:05;;;;;;;5.90;1.83;;;8.80;56.50;;;;;;5076459;28;20111;-71
2021/04/22 07:57:30;;;;;;;4.70;1.25;;;8.90;56.70;;;;;;5076344;28;20020;-71
2021/04/22 07:59:56;;;;;;;6.70;1.33;;;8.90;56.70;;;;;;5076228;28;20422;-71
2021/04/22 08:02:22;;;;;;;9.38;1.70;;;9.10;56.50;;;;;;5076319;28;20470;-71
2021/04/22 08:04:48;;;;;;;7.25;1.83;;;9.10;56.30;;;;;;5076020;28;20063;-72
2021/04/22 08:07:13;;;;;;;7.03;1.70;;;9.20;55.90;;;;;;5076251;28;20385;-71
2021/04/22 08:09:39;;;;;;;7.20;1.98;;;9.30;55.60;;;;;;5074674;28;20162;-71
2021/04/22 08:12:06;;;;;;;6.22;1.83;;;9.30;55.50;;;;;;5076077;28;20047;-71
2021/04/22 08:14:33;;;;;;;6.47;1.60;;;9.30;55.60;;;;;;5074618;28;20054;-71
2021/04/22 08:16:59;;;;;;;7.38;2.08;;;9.30;55.60;;;;;;5074613;28;20456;-71
2021/04/22 08:19:28;;;;;;;6.28;1.85;;;9.30;55.50;;;;;;5076362;28;20024;-71
2021/04/22 08:21:54;;;;;;;9.60;1.80;;;9.30;55.40;;;;;;5074557;28;20036;-70
2021/04/22 08:24:20;;;;;;;9.15;2.00;;;9.30;55.50;;;;;;5076129;28;20040;-70
2021/04/22 08:26:46;;;;;;;5.82;1.80;;;9.30;55.40;;;;;;5075703;28;20115;-71
2021/04/22 08:29:14;;;;;;;5.88;1.90;;;9.50;55.30;;;;;;5075801;28;20107;-71
2021/04/22 08:31:40;;;;;;;5.68;1.80;;;9.60;54.90;;;;;;5074141;28;20029;-70
2021/04/22 08:34:08;;;;;;;3.50;1.50;;;9.80;54.60;;;;;;5074245;28;20030;-70
2021/04/22 08:36:35;;;;;;;8.43;1.67;;;9.90;54.00;;;;;;5074317;28;20052;-71
2021/04/22 08:39:03;;;;;;;5.97;2.00;;;10.00;54.10;;;;;;5071484;28;20045;-71
2021/04/22 08:41:29;;;;;;;8.63;2.92;;;10.00;52.50;;;;;;5074349;28;20024;-71
2021/04/22 08:43:55;;;;;;;11.82;2.42;;;9.90;52.80;;;;;;5076044;28;20028;-72
2021/04/22 08:46:23;;;;;;;11.02;2.33;;;9.80;53.10;;;;;;5074212;28;20397;-71
2021/04/22 08:48:49;;;;;;;6.32;2.10;;;9.80;52.70;;;;;;5074017;28;20024;-71
2021/04/22 08:51:15;;;;;;;11.52;2.15;;;9.80;52.90;;;;;;5074012;28;20047;-71
2021/04/22 08:53:44;;;;;;;8.73;3.45;;;9.70;52.50;;;;;;5075448;28;20388;-71
2021/04/22 08:56:10;;;;;;;8.68;1.88;;;9.70;52.70;;;;;;5075907;28;20033;-71
2021/04/22 08:58:36;;;;;;;8.32;1.80;;;9.60;52.70;;;;;;5074030;28;20032;-71
2021/04/22 09:01:12;;;;;;;7.72;1.75;;;9.60;53.00;;;;;;5075376;28;20392;-71
2021/04/22 09:03:42;;;;;;;7.22;1.73;;;9.60;53.00;;;;;;5075115;28;20471;-70
2021/04/22 09:06:08;;;;;;;9.82;1.85;;;9.70;52.90;;;;;;5074017;28;20372;-71
2021/04/22 09:08:38;;;;;;;5.90;1.70;;;9.70;52.70;;;;;;5073801;28;20111;-71
2021/04/22 09:11:06;;;;;;;9.43;2.08;;;9.70;52.70;;;;;;5075275;28;20037;-71
2021/04/22 09:13:33;;;;;;;3.40;1.30;;;9.70;52.70;;;;;;5075461;28;20472;-72
2021/04/22 09:16:06;;;;;;;5.47;1.60;;;9.70;52.70;;;;;;5073986;28;20021;-70
2021/04/22 09:18:41;;;;;;;5.97;1.90;;;9.80;52.30;;;;;;5073339;28;20018;-70
2021/04/22 09:21:23;;;;;;;5.53;1.67;;;9.90;52.30;;;;;;5074690;28;20025;-70
2021/04/22 09:24:13;;;;;;;4.57;1.67;;;10.10;52.50;;;;;;5073419;28;20020;-70
2021/04/22 09:26:40;;;;;;;8.98;2.13;;;10.20;52.10;;;;;;5073030;28;20035;-70
2021/04/22 09:29:07;;;;;;;7.60;2.03;;;10.30;51.90;;;;;;5073220;28;20087;-70
2021/04/22 09:31:34;;;;;;;6.35;1.80;;;10.40;51.80;;;;;;5074224;28;20426;-70
2021/04/22 09:34:08;;;;;;;4.70;1.70;;;10.50;51.70;;;;;;5074347;28;20077;-70
2021/04/22 09:36:54;;;;;;;5.28;1.80;;;10.50;51.70;;;;;;5074304;28;20036;-71
2021/04/22 09:39:25;;;;;;;7.40;2.20;;;10.70;51.40;;;;;;5073037;28;20024;-71
2021/04/22 09:41:55;;;;;;;7.65;1.77;;;10.80;51.10;;;;;;5074191;28;20379;-71
2021/04/22 09:44:21;;;;;;;3.72;1.65;;;10.80;51.10;;;;;;5073081;28;20111;-71
2021/04/22 09:46:48;;;;;;;5.53;1.90;;;10.90;51.00;;;;;;5072944;28;20453;-71
2021/04/22 09:49:20;;;;;;;5.47;1.50;;;11.00;50.80;;;;;;5073055;28;20104;-71
2021/04/22 09:51:49;;;;;;;5.13;1.88;;;10.90;50.80;;;;;;5072922;28;20048;-71
2021/04/22 09:54:20;;;;;;;5.82;1.70;;;10.90;50.50;;;;;;5072987;28;20384;-71
2021/04/22 09:56:54;;;;;;;5.03;1.50;;;11.00;50.70;;;;;;5072887;28;20117;-72
2021/04/22 09:59:23;;;;;;;6.28;1.90;;;11.00;50.50;;;;;;5072558;28;20487;-71
2021/04/22 10:02:05;;;;;;;5.32;2.13;;;11.00;50.00;;;;;;5073894;28;20074;-71
2021/04/22 10:04:45;;;;;;;8.00;1.85;;;11.00;50.00;;;;;;5072815;28;20032;-71
2021/04/22 10:07:29;;;;;;;8.00;1.67;;;11.00;50.20;;;;;;5072664;28;20476;-70
2021/04/22 10:09:59;;;;;;;;;;;11.00;50.20;;;;;;5073053;28;20056;-70
2021/04/22 10:12:34;;;;;;;7.00;2.05;;;11.10;50.30;;;;;;5072432;28;20362;-70
2021/04/22 10:15:22;;;;;;;9.85;2.00;;;11.20;50.00;;;;;;5072375;28;20480;-71
2021/04/22 10:17:55;;;;;;;7.75;2.25;;;11.20;49.90;;;;;;5073392;28;20012;-70
2021/04/22 10:20:26;;;;;;;5.85;1.95;;;11.30;49.50;;;;;;5072317;28;20020;-71
2021/04/22 10:22:54;;;;;;;8.40;1.90;;;11.30;48.80;;;;;;5072098;28;20475;-71
2021/04/22 10:25:23;;;;;;;6.65;2.20;;;11.20;48.60;;;;;;5073563;28;20395;-71
2021/04/22 10:27:49;;;;;;;6.47;2.10;;;11.20;48.70;;;;;;5073455;28;20020;-71
2021/04/22 10:30:24;;;;;;;7.18;2.05;;;11.20;48.50;;;;;;5072272;28;20031;-74
2021/04/22 10:32:50;;;;;;;5.03;1.85;;;11.20;48.90;;;;;;5073343;28;20028;-74
2021/04/22 10:35:18;;;;;;;4.93;1.55;;;11.30;49.10;;;;;;5072009;28;20059;-74
2021/04/22 10:37:47;;;;;;;5.38;1.55;;;11.30;49.30;;;;;;5073093;28;20032;-74
2021/04/22 10:40:15;;;;;;;5.53;1.75;;;11.40;49.30;;;;;;5071895;28;20395;-75
2021/04/22 10:42:42;;;;;;;5.68;1.95;;;11.60;49.30;;;;;;5073144;28;20451;-74
2021/04/22 10:45:18;;;;;;;7.20;2.10;;;11.60;49.00;;;;;;5071823;28;20028;-74
2021/04/22 10:47:44;;;;;;;7.97;1.80;;;11.70;48.40;;;;;;5071776;28;20067;-74
2021/04/22 10:50:16;;;;;;;5.15;1.75;;;11.70;48.50;;;;;;5071721;28;20043;-74
2021/04/22 10:52:47;;;;;;;6.40;2.00;;;11.80;48.00;;;;;;5073202;28;20392;-74
2021/04/22 10:55:26;;;;;;;5.40;1.83;;;11.80;47.30;;;;;;5073315;28;20497;-74
2021/04/22 10:57:55;;;;;;;7.85;2.10;;;11.70;46.80;;;;;;5073463;28;20096;-76
2021/04/22 11:00:26;;;;;;;4.47;1.67;;;11.70;47.20;;;;;;5071669;28;20468;-75
2021/04/22 11:02:55;;;;;;;5.13;1.75;;;11.70;47.40;;;;;;5072462;28;20024;-75
2021/04/22 11:05:24;;;;;;;8.23;2.22;;;11.80;47.20;;;;;;5071724;28;20025;-74
2021/04/22 11:07:55;;;;;;;7.43;2.05;;;11.90;46.90;;;;;;5071924;28;20388;-74
2021/04/22 11:10:21;;;;;;;8.32;2.00;;;11.90;46.60;;;;;;5071730;28;20039;-74
2021/04/22 11:12:47;;;;;;;9.60;2.13;;;11.80;46.50;;;;;;5071877;28;20029;-74
2021/04/22 11:15:20;;;;;;;6.82;1.85;;;11.90;46.30;;;;;;5071412;28;20060;-75
2021/04/22 11:17:46;;;;;;;5.43;1.83;;;11.90;46.60;;;;;;5072716;28;20353;-75
2021/04/22 11:20:20;;;;;;;5.72;1.48;;;12.00;46.10;;;;;;5072650;28;20020;-75
2021/04/22 11:22:46;;;;;;;7.32;1.90;;;12.00;46.30;;;;;;5071261;28;20017;-75
2021/04/22 11:25:21;;;;;;;5.43;1.83;;;12.10;46.10;;;;;;5071368;28;20076;-74
2021/04/22 11:27:53;;;;;;;4.55;1.77;;;12.10;45.70;;;;;;5071298;28;20120;-74
2021/04/22 11:30:30;;;;;;;4.68;1.45;;;12.10;46.00;;;;;;5073200;28;20368;-75
2021/04/22 11:33:00;;;;;;;5.57;1.55;;;12.20;46.20;;;;;;5070944;28;20048;-74
2021/04/22 11:35:30;;;;;;;7.03;1.55;;;12.30;46.50;;;;;;5071076;28;20021;-75
2021/04/22 11:38:08;;;;;;;8.40;2.22;;;12.40;46.50;;;;;;5071009;28;20012;-74
2021/04/22 11:40:39;;;;;;;5.78;1.67;;;12.50;46.10;;;;;;5071059;28;20021;-74
2021/04/22 11:43:05;;;;;;;6.18;1.95;;;12.50;46.20;;;;;;5071092;28;20450;-74
2021/04/22 11:45:33;;;;;;;6.20;2.00;;;12.50;46.20;;;;;;5071129;28;20302;-74
2021/04/22 11:48:02;;;;;;;4.93;1.95;;;12.50;46.50;;;;;;5072393;28;20021;-74
2021/04/22 11:50:50;;;;;;;6.07;1.90;;;12.50;46.10;;;;;;5071049;28;20092;-74
2021/04/22 11:53:17;;;;;;;4.13;1.60;;;12.60;46.30;;;;;;5072374;28;20044;-74
2021/04/22 11:55:51;;;;;;;5.45;2.00;;;12.70;46.20;;;;;;5072395;28;20036;-74
2021/04/22 11:58:22;;;;;;;4.65;1.58;;;12.90;46.00;;;;;;5071201;28;20119;-75
2021/04/22 12:00:51;;;;;;;5.22;2.22;;;12.90;45.30;;;;;;5072548;28;20463;-75
2021/04/22 12:03:25;;;;;;;7.15;2.10;;;12.90;45.60;;;;;;5071072;28;20028;-75
2021/04/22 12:05:52;;;;;;;3.88;1.73;;;12.90;45.30;;;;;;5072346;28;20058;-75
2021/04/22 12:08:25;;;;;;;14.30;2.00;;;12.90;45.40;;;;;;5070783;28;20480;-75
2021/04/22 12:10:51;;;;;;;7.45;2.13;;;12.90;45.70;;;;;;5071029;28;20114;-76
2021/04/22 12:13:21;;;;;;;6.05;2.17;;;13.00;45.60;;;;;;5072258;28;20040;-75
2021/04/22 12:15:58;;;;;;;6.50;2.42;;;13.10;45.50;;;;;;5070552;28;20029;-75
2021/04/22 12:18:34;;;;;;;5.03;1.80;;;13.10;45.70;;;;;;5072215;28;20451;-75
2021/04/22 12:21:11;;;;;;;8.75;2.40;;;13.20;45.60;;;;;;5070691;28;20127;-75
2021/04/22 12:23:52;;;;;;;5.00;2.20;;;13.20;45.60;;;;;;5072414;28;20174;-75
2021/04/22 12:26:27;;;;;;;7.20;1.92;;;13.20;45.80;;;;;;5075653;28;20039;-75
2021/04/22 12:29:00;;;;;;;5.75;2.10;;;13.20;46.00;;;;;;5074349;28;20043;-74
2021/04/22 12:31:34;;;;;;;8.97;2.00;;;13.30;46.10;;;;;;5075556;28;20361;-75
2021/04/22 12:34:08;;;;;;;5.22;1.83;;;13.40;45.80;;;;;;5075592;28;20043;-74
2021/04/22 12:36:36;;;;;;;5.22;1.55;;;13.50;45.60;;;;;;5075448;28;20111;-75
2021/04/22 12:39:05;;;;;;;7.30;1.90;;;13.60;45.20;;;;;;5075803;28;20033;-75
2021/04/22 12:41:32;;;;;;;8.60;2.00;;;13.70;44.70;;;;;;5074681;28;20387;-75
2021/04/22 12:43:57;;;;;;;4.10;1.73;;;13.70;44.80;;;;;;5075588;28;20036;-75
2021/04/22 12:46:26;;;;;;;7.15;2.00;;;13.80;44.80;;;;;;5075784;28;20033;-75
2021/04/22 12:48:58;;;;;;;8.65;2.22;;;13.80;44.70;;;;;;5075630;28;20024;-75
2021/04/22 12:51:32;;;;;;;6.97;2.00;;;13.90;44.90;;;;;;5075358;28;20106;-75
2021/04/22 12:53:57;;;;;;;6.85;1.92;;;13.90;44.10;;;;;;5075404;28;20032;-75
2021/04/22 12:56:23;;;;;;;6.55;1.92;;;13.80;44.50;;;;;;5075759;28;20048;-75